createdAt,value
2018-05-09T00:00:49.035Z,1003.66
2018-05-09T00:01:49.067Z,1003.67
2018-05-09T00:02:49.406Z,1003.67
2018-05-09T00:03:49.152Z,1003.69
2018-05-09T00:04:49.166Z,1003.64
2018-05-09T00:05:49.197Z,1003.63
2018-05-09T00:06:49.230Z,1003.64
2018-05-09T00:07:49.266Z,1003.63
2018-05-09T00:08:49.302Z,1003.59
2018-05-09T00:09:49.881Z,1003.57
2018-05-09T00:10:49.368Z,1003.54
2018-05-09T00:11:49.396Z,1003.55
2018-05-09T00:12:49.425Z,1003.60
2018-05-09T00:13:49.458Z,1003.56
2018-05-09T00:14:49.490Z,1003.57
2018-05-09T00:15:49.873Z,1003.54
2018-05-09T00:16:49.553Z,1003.56
2018-05-09T00:17:49.611Z,1003.54
2018-05-09T00:18:49.620Z,1003.59
2018-05-09T00:19:49.651Z,1003.53
2018-05-09T00:20:49.741Z,1003.52
2018-05-09T00:21:50.016Z,1003.53
2018-05-09T00:22:49.753Z,1003.54
2018-05-09T00:23:49.782Z,1003.55
2018-05-09T00:24:49.994Z,1003.56
2018-05-09T00:25:49.887Z,1003.53
2018-05-09T00:26:49.900Z,1003.55
2018-05-09T00:27:50.209Z,1003.55
2018-05-09T00:28:49.943Z,1003.55
2018-05-09T00:29:49.973Z,1003.59
2018-05-09T00:30:50.007Z,1003.56
2018-05-09T00:31:50.135Z,1003.55
2018-05-09T00:32:50.077Z,1003.57
2018-05-09T00:33:50.405Z,1003.53
2018-05-09T00:34:50.136Z,1003.56
2018-05-09T00:35:50.169Z,1003.55
2018-05-09T00:36:50.255Z,1003.58
2018-05-09T00:37:50.386Z,1003.53
2018-05-09T00:38:50.268Z,1003.54
2018-05-09T00:39:50.595Z,1003.52
2018-05-09T00:40:50.329Z,1003.51
2018-05-09T00:41:50.533Z,1003.48
2018-05-09T00:42:50.399Z,1003.46
2018-05-09T00:43:50.427Z,1003.43
2018-05-09T00:44:50.466Z,1003.37
2018-05-09T00:45:50.788Z,1003.41
2018-05-09T00:46:50.539Z,1003.38
2018-05-09T00:47:50.556Z,1003.37
2018-05-09T00:48:50.592Z,1003.42
2018-05-09T00:49:50.619Z,1003.39
2018-05-09T00:50:50.952Z,1003.39
2018-05-09T00:51:51.044Z,1003.41
2018-05-09T00:52:50.717Z,1003.40
2018-05-09T00:53:50.749Z,1003.44
2018-05-09T00:54:50.783Z,1003.46
2018-05-09T00:55:50.832Z,1003.51
2018-05-09T00:56:50.942Z,1003.48
2018-05-09T00:57:51.224Z,1003.44
2018-05-09T00:58:50.985Z,1003.43
2018-05-09T00:59:50.949Z,1003.42
2018-05-09T01:00:50.972Z,1003.41
2018-05-09T01:01:51.054Z,1003.41
2018-05-09T01:02:51.093Z,1003.42
2018-05-09T01:03:51.477Z,1003.41
2018-05-09T01:04:51.113Z,1003.45
2018-05-09T01:05:51.128Z,1003.44
2018-05-09T01:06:51.161Z,1003.45
2018-05-09T01:07:51.223Z,1003.44
2018-05-09T01:08:51.305Z,1003.42
2018-05-09T01:09:51.626Z,1003.46
2018-05-09T01:10:51.291Z,1003.43
2018-05-09T01:11:51.462Z,1003.40
2018-05-09T01:12:51.359Z,1003.39
2018-05-09T01:13:51.430Z,1003.39
2018-05-09T01:14:51.420Z,1003.35
2018-05-09T01:15:51.803Z,1003.35
2018-05-09T01:16:51.504Z,1003.32
2018-05-09T01:17:51.549Z,1003.32
2018-05-09T01:18:51.571Z,1003.31
2018-05-09T01:19:51.577Z,1003.32
2018-05-09T01:20:51.613Z,1003.34
2018-05-09T01:21:51.940Z,1003.31
2018-05-09T01:22:51.696Z,1003.31
2018-05-09T01:23:51.705Z,1003.35
2018-05-09T01:24:51.734Z,1003.30
2018-05-09T01:25:51.939Z,1003.31
2018-05-09T01:26:51.857Z,1003.33
2018-05-09T01:27:52.129Z,1003.33
2018-05-09T01:28:51.937Z,1003.31
2018-05-09T01:29:51.893Z,1003.34
2018-05-09T01:30:51.957Z,1003.33
2018-05-09T01:31:51.960Z,1003.35
2018-05-09T01:32:51.987Z,1003.31
2018-05-09T01:33:52.019Z,1003.33
2018-05-09T01:34:52.355Z,1003.33
2018-05-09T01:35:52.090Z,1003.30
2018-05-09T01:36:52.120Z,1003.33
2018-05-09T01:37:52.226Z,1003.36
2018-05-09T01:38:52.241Z,1003.30
2018-05-09T01:39:52.220Z,1003.34
2018-05-09T01:40:52.291Z,1003.33
2018-05-09T01:41:52.671Z,1003.32
2018-05-09T01:42:52.321Z,1003.33
2018-05-09T01:43:52.342Z,1003.33
2018-05-09T01:44:52.414Z,1003.28
2018-05-09T01:45:52.401Z,1003.30
2018-05-09T01:46:52.430Z,1003.29
2018-05-09T01:47:52.460Z,1003.25
2018-05-09T01:48:52.841Z,1003.24
2018-05-09T01:49:52.525Z,1003.27
2018-05-09T01:50:52.662Z,1003.26
2018-05-09T01:51:52.641Z,1003.28
2018-05-09T01:52:52.617Z,1003.27
2018-05-09T01:53:52.736Z,1003.23
2018-05-09T01:54:52.769Z,1003.25
2018-05-09T01:55:53.069Z,1003.26
2018-05-09T01:56:52.804Z,1003.27
2018-05-09T01:57:52.776Z,1003.26
2018-05-09T01:58:52.893Z,1003.27
2018-05-09T01:59:52.888Z,1003.21
2018-05-09T02:00:53.417Z,1003.22
2018-05-09T02:01:53.010Z,1003.21
2018-05-09T02:02:53.229Z,1003.19
2018-05-09T02:03:53.014Z,1003.21
2018-05-09T02:04:53.046Z,1003.19
2018-05-09T02:05:53.028Z,1003.19
2018-05-09T02:06:53.063Z,1003.17
2018-05-09T02:07:53.088Z,1003.18
2018-05-09T02:08:53.126Z,1003.17
2018-05-09T02:09:53.533Z,1003.20
2018-05-09T02:10:53.295Z,1003.16
2018-05-09T02:11:53.219Z,1003.17
2018-05-09T02:12:53.254Z,1003.16
2018-05-09T02:13:53.290Z,1003.18
2018-05-09T02:14:53.336Z,1003.18
2018-05-09T02:15:53.364Z,1003.16
2018-05-09T02:16:53.720Z,1003.15
2018-05-09T02:17:53.399Z,1003.16
2018-05-09T02:18:53.428Z,1003.15
2018-05-09T02:19:53.461Z,1003.15
2018-05-09T02:20:53.502Z,1003.14
2018-05-09T02:21:53.538Z,1003.14
2018-05-09T02:22:53.555Z,1003.14
2018-05-09T02:23:53.888Z,1003.15
2018-05-09T02:24:53.647Z,1003.12
2018-05-09T02:25:53.651Z,1003.17
2018-05-09T02:26:53.765Z,1003.16
2018-05-09T02:27:53.737Z,1003.17
2018-05-09T02:28:53.745Z,1003.16
2018-05-09T02:29:53.832Z,1003.16
2018-05-09T02:30:54.163Z,1003.16
2018-05-09T02:31:53.843Z,1003.18
2018-05-09T02:32:53.868Z,1003.18
2018-05-09T02:33:53.905Z,1003.18
2018-05-09T02:34:53.980Z,1003.15
2018-05-09T02:35:53.961Z,1003.14
2018-05-09T02:36:53.998Z,1003.14
2018-05-09T02:37:54.383Z,1003.12
2018-05-09T02:38:54.065Z,1003.10
2018-05-09T02:39:54.111Z,1003.08
2018-05-09T02:40:54.119Z,1003.09
2018-05-09T02:41:54.159Z,1003.07
2018-05-09T02:42:54.190Z,1003.09
2018-05-09T02:43:54.328Z,1003.07
2018-05-09T02:44:54.551Z,1003.12
2018-05-09T02:45:54.333Z,1003.13
2018-05-09T02:46:54.331Z,1003.10
2018-05-09T02:47:54.380Z,1003.11
2018-05-09T02:48:54.383Z,1003.11
2018-05-09T02:49:54.497Z,1003.11
2018-05-09T02:50:54.730Z,1003.11
2018-05-09T02:51:54.467Z,1003.11
2018-05-09T02:52:54.594Z,1003.15
2018-05-09T02:53:54.525Z,1003.11
2018-05-09T02:54:54.559Z,1003.14
2018-05-09T02:55:54.635Z,1003.16
2018-05-09T02:56:55.016Z,1003.21
2018-05-09T02:57:54.649Z,1003.18
2018-05-09T02:58:54.731Z,1003.22
2018-05-09T02:59:54.762Z,1003.21
2018-05-09T03:00:54.743Z,1003.20
2018-05-09T03:01:54.778Z,1003.20
2018-05-09T03:02:55.157Z,1003.16
2018-05-09T03:03:54.842Z,1003.18
2018-05-09T03:04:54.871Z,1003.18
2018-05-09T03:05:54.898Z,1003.18
2018-05-09T03:06:54.931Z,1003.23
2018-05-09T03:07:54.962Z,1003.22
2018-05-09T03:08:55.290Z,1003.20
2018-05-09T03:09:55.021Z,1003.17
2018-05-09T03:10:55.102Z,1003.22
2018-05-09T03:11:55.088Z,1003.19
2018-05-09T03:12:55.128Z,1003.23
2018-05-09T03:13:55.208Z,1003.22
2018-05-09T03:14:55.482Z,1003.23
2018-05-09T03:15:55.215Z,1003.28
2018-05-09T03:16:55.293Z,1003.27
2018-05-09T03:17:55.363Z,1003.26
2018-05-09T03:18:55.349Z,1003.27
2018-05-09T03:19:55.378Z,1003.22
2018-05-09T03:20:55.715Z,1003.26
2018-05-09T03:21:55.397Z,1003.23
2018-05-09T03:22:55.434Z,1003.28
2018-05-09T03:23:55.474Z,1003.29
2018-05-09T03:24:55.488Z,1003.29
2018-05-09T03:25:55.519Z,1003.27
2018-05-09T03:26:55.841Z,1003.28
2018-05-09T03:27:55.602Z,1003.30
2018-05-09T03:28:55.606Z,1003.29
2018-05-09T03:29:55.638Z,1003.27
2018-05-09T03:30:55.672Z,1003.26
2018-05-09T03:31:55.723Z,1003.26
2018-05-09T03:32:56.068Z,1003.23
2018-05-09T03:33:55.811Z,1003.22
2018-05-09T03:34:55.798Z,1003.22
2018-05-09T03:35:55.848Z,1003.21
2018-05-09T03:36:55.913Z,1003.28
2018-05-09T03:37:55.883Z,1003.23
2018-05-09T03:38:56.215Z,1003.26
2018-05-09T03:39:55.977Z,1003.28
2018-05-09T03:40:55.996Z,1003.28
2018-05-09T03:41:56.027Z,1003.30
2018-05-09T03:43:56.071Z,1003.29
2018-05-09T03:44:56.418Z,1003.30
2018-05-09T03:45:56.179Z,1003.31
2018-05-09T03:46:56.170Z,1003.32
2018-05-09T03:47:56.189Z,1003.32
2018-05-09T03:48:56.272Z,1003.36
2018-05-09T03:49:56.315Z,1003.35
2018-05-09T03:50:56.648Z,1003.39
2018-05-09T03:51:56.337Z,1003.35
2018-05-09T03:52:56.354Z,1003.35
2018-05-09T03:53:56.383Z,1003.33
2018-05-09T03:54:56.520Z,1003.37
2018-05-09T03:55:56.437Z,1003.37
2018-05-09T03:56:56.830Z,1003.40
2018-05-09T03:57:56.550Z,1003.44
2018-05-09T03:58:56.528Z,1003.43
2018-05-09T03:59:56.562Z,1003.47
2018-05-09T04:00:56.672Z,1003.44
2018-05-09T04:01:56.666Z,1003.46
2018-05-09T04:02:57.005Z,1003.47
2018-05-09T04:03:56.692Z,1003.45
2018-05-09T04:04:56.718Z,1003.49
2018-05-09T04:05:56.766Z,1003.49
2018-05-09T04:06:56.786Z,1003.47
2018-05-09T04:07:56.863Z,1003.48
2018-05-09T04:08:56.869Z,1003.53
2018-05-09T04:09:57.180Z,1003.51
2018-05-09T04:10:56.913Z,1003.57
2018-05-09T04:11:57.038Z,1003.55
2018-05-09T04:12:56.980Z,1003.57
2018-05-09T04:13:57.053Z,1003.57
2018-05-09T04:14:57.160Z,1003.58
2018-05-09T04:15:57.315Z,1003.58
2018-05-09T04:16:57.476Z,1003.55
2018-05-09T04:17:57.146Z,1003.56
2018-05-09T04:18:57.200Z,1003.61
2018-05-09T04:19:57.204Z,1003.54
2018-05-09T04:20:57.237Z,1003.55
2018-05-09T04:21:57.311Z,1003.54
2018-05-09T04:22:57.290Z,1003.52
2018-05-09T04:23:57.709Z,1003.53
2018-05-09T04:24:57.367Z,1003.53
2018-05-09T04:25:57.450Z,1003.56
2018-05-09T04:26:57.419Z,1003.55
2018-05-09T04:27:57.449Z,1003.57
2018-05-09T04:28:57.556Z,1003.53
2018-05-09T04:29:57.616Z,1003.57
2018-05-09T04:30:57.853Z,1003.57
2018-05-09T04:31:57.633Z,1003.63
2018-05-09T04:32:57.611Z,1003.60
2018-05-09T04:33:57.651Z,1003.60
2018-05-09T04:34:57.730Z,1003.59
2018-05-09T04:35:57.706Z,1003.56
2018-05-09T04:36:57.742Z,1003.58
2018-05-09T04:37:58.076Z,1003.57
2018-05-09T04:38:57.855Z,1003.59
2018-05-09T04:39:57.838Z,1003.57
2018-05-09T04:40:57.870Z,1003.56
2018-05-09T04:41:58.043Z,1003.59
2018-05-09T04:42:57.952Z,1003.61
2018-05-09T04:43:57.967Z,1003.61
2018-05-09T04:44:58.373Z,1003.57
2018-05-09T04:45:58.031Z,1003.59
2018-05-09T04:46:58.473Z,1003.61
2018-05-09T04:47:58.182Z,1003.58
2018-05-09T04:48:58.216Z,1003.60
2018-05-09T04:49:58.163Z,1003.55
2018-05-09T04:50:58.249Z,1003.53
2018-05-09T04:52:58.281Z,1003.56
2018-05-09T04:53:58.300Z,1003.55
2018-05-09T04:54:58.415Z,1003.54
2018-05-09T04:55:58.410Z,1003.50
2018-05-09T04:56:58.451Z,1003.54
2018-05-09T04:58:58.760Z,1003.53
2018-05-09T04:59:58.569Z,1003.50
2018-05-09T05:00:58.525Z,1003.54
2018-05-09T05:01:58.607Z,1003.53
2018-05-09T05:02:58.586Z,1003.56
2018-05-09T05:03:58.636Z,1003.58
2018-05-09T05:04:58.660Z,1003.54
2018-05-09T05:05:59.023Z,1003.54
2018-05-09T05:06:58.748Z,1003.56
2018-05-09T05:07:58.808Z,1003.55
2018-05-09T05:08:58.789Z,1003.54
2018-05-09T05:09:58.887Z,1003.65
2018-05-09T05:10:58.880Z,1003.62
2018-05-09T05:11:58.886Z,1003.65
2018-05-09T05:12:59.215Z,1003.67
2018-05-09T05:13:58.964Z,1003.72
2018-05-09T05:14:59.037Z,1003.73
2018-05-09T05:15:59.015Z,1003.74
2018-05-09T05:16:59.055Z,1003.75
2018-05-09T05:17:59.122Z,1003.76
2018-05-09T05:18:59.113Z,1003.76
2018-05-09T05:19:59.533Z,1003.80
2018-05-09T05:20:59.178Z,1003.76
2018-05-09T05:21:59.213Z,1003.74
2018-05-09T05:22:59.243Z,1003.78
2018-05-09T05:23:59.290Z,1003.75
2018-05-09T05:24:59.375Z,1003.78
2018-05-09T05:25:59.359Z,1003.74
2018-05-09T05:26:59.677Z,1003.73
2018-05-09T05:27:59.407Z,1003.69
2018-05-09T05:28:59.452Z,1003.76
2018-05-09T05:29:59.525Z,1003.73
2018-05-09T05:30:59.508Z,1003.73
2018-05-09T05:31:59.565Z,1003.75
2018-05-09T05:33:00.033Z,1003.79
2018-05-09T05:33:59.620Z,1003.80
2018-05-09T05:34:59.712Z,1003.84
2018-05-09T05:35:59.711Z,1003.82
2018-05-09T05:36:59.766Z,1003.82
2018-05-09T05:37:59.743Z,1003.83
2018-05-09T05:38:59.828Z,1003.81
2018-05-09T05:39:59.861Z,1003.83
2018-05-09T05:41:00.108Z,1003.82
2018-05-09T05:41:59.908Z,1003.85
2018-05-09T05:42:59.909Z,1003.83
2018-05-09T05:43:59.960Z,1003.83
2018-05-09T05:45:00.352Z,1003.86
2018-05-09T05:46:00.010Z,1003.83
2018-05-09T05:47:00.038Z,1003.85
2018-05-09T05:48:00.073Z,1003.86
2018-05-09T05:49:00.105Z,1003.87
2018-05-09T05:50:00.148Z,1003.84
2018-05-09T05:51:00.480Z,1003.83
2018-05-09T05:52:00.205Z,1003.86
2018-05-09T05:53:00.292Z,1003.88
2018-05-09T05:54:00.292Z,1003.83
2018-05-09T05:55:00.307Z,1003.83
2018-05-09T05:56:00.400Z,1003.85
2018-05-09T05:57:00.678Z,1003.87
2018-05-09T05:58:00.509Z,1003.86
2018-05-09T05:59:00.442Z,1003.89
2018-05-09T06:00:00.519Z,1003.85
2018-05-09T06:01:00.510Z,1003.85
2018-05-09T06:02:00.656Z,1003.87
2018-05-09T06:03:00.945Z,1003.89
2018-05-09T06:04:00.781Z,1003.86
2018-05-09T06:05:00.666Z,1003.85
2018-05-09T06:06:00.675Z,1003.83
2018-05-09T06:07:00.711Z,1003.83
2018-05-09T06:08:00.816Z,1003.83
2018-05-09T06:09:01.076Z,1003.81
2018-05-09T06:10:00.858Z,1003.82
2018-05-09T06:11:00.995Z,1003.83
2018-05-09T06:12:01.022Z,1003.86
2018-05-09T06:13:00.915Z,1003.86
2018-05-09T06:14:00.948Z,1003.87
2018-05-09T06:15:01.324Z,1003.88
2018-05-09T06:16:01.007Z,1003.86
2018-05-09T06:17:01.037Z,1003.89
2018-05-09T06:18:01.107Z,1003.89
2018-05-09T06:19:01.143Z,1003.87
2018-05-09T06:20:01.156Z,1003.90
2018-05-09T06:21:01.176Z,1003.90
2018-05-09T06:22:01.209Z,1003.89
2018-05-09T06:23:01.239Z,1003.89
2018-05-09T06:24:01.378Z,1003.90
2018-05-09T06:25:01.411Z,1003.91
2018-05-09T06:26:01.340Z,1003.91
2018-05-09T06:27:01.824Z,1003.90
2018-05-09T06:28:01.415Z,1003.93
2018-05-09T06:29:01.473Z,1003.95
2018-05-09T06:30:01.529Z,1003.93
2018-05-09T06:31:01.698Z,1003.94
2018-05-09T06:32:01.572Z,1003.97
2018-05-09T06:33:01.902Z,1004.01
2018-05-09T06:34:01.623Z,1003.99
2018-05-09T06:35:01.722Z,1003.97
2018-05-09T06:36:01.695Z,1004.00
2018-05-09T06:37:01.713Z,1004.01
2018-05-09T06:38:01.801Z,1004.06
2018-05-09T06:39:02.078Z,1004.08
2018-05-09T06:40:01.820Z,1004.11
2018-05-09T06:41:01.878Z,1004.12
2018-05-09T06:42:01.912Z,1004.10
2018-05-09T06:43:01.936Z,1004.12
2018-05-09T06:44:02.100Z,1004.10
2018-05-09T06:45:01.979Z,1004.11
2018-05-09T06:46:02.009Z,1004.08
2018-05-09T06:47:02.044Z,1004.08
2018-05-09T06:48:02.114Z,1004.12
2018-05-09T06:49:02.117Z,1004.13
2018-05-09T06:50:02.176Z,1004.14
2018-05-09T06:51:02.535Z,1004.13
2018-05-09T06:52:02.240Z,1004.13
2018-05-09T06:53:02.249Z,1004.17
2018-05-09T06:54:02.279Z,1004.13
2018-05-09T06:55:02.320Z,1004.14
2018-05-09T06:56:02.346Z,1004.11
2018-05-09T06:57:02.388Z,1004.14
2018-05-09T06:58:02.716Z,1004.10
2018-05-09T06:59:02.829Z,1004.09
2018-05-09T07:00:02.646Z,1004.05
2018-05-09T07:01:02.516Z,1004.10
2018-05-09T07:02:02.556Z,1004.06
2018-05-09T07:03:02.619Z,1004.07
2018-05-09T07:04:02.619Z,1004.07
2018-05-09T07:05:02.978Z,1004.05
2018-05-09T07:06:02.740Z,1004.08
2018-05-09T07:07:02.774Z,1004.08
2018-05-09T07:08:02.755Z,1004.06
2018-05-09T07:09:02.791Z,1004.09
2018-05-09T07:10:02.829Z,1004.02
2018-05-09T07:11:02.904Z,1004.03
2018-05-09T07:12:03.190Z,1004.02
2018-05-09T07:13:02.919Z,1004.05
2018-05-09T07:14:02.953Z,1004.03
2018-05-09T07:15:02.985Z,1003.96
2018-05-09T07:16:03.281Z,1003.92
2018-05-09T07:17:03.117Z,1004.00
2018-05-09T07:18:03.092Z,1004.02
2018-05-09T07:19:03.471Z,1003.98
2018-05-09T07:20:03.156Z,1003.98
2018-05-09T07:21:03.211Z,1003.95
2018-05-09T07:22:03.238Z,1003.92
2018-05-09T07:23:03.340Z,1003.96
2018-05-09T07:24:03.344Z,1003.92
2018-05-09T07:25:03.329Z,1003.95
2018-05-09T07:26:03.711Z,1003.96
2018-05-09T07:27:03.400Z,1003.97
2018-05-09T07:28:03.428Z,1003.99
2018-05-09T07:29:03.469Z,1003.99
2018-05-09T07:30:03.556Z,1004.01
2018-05-09T07:31:03.695Z,1004.00
2018-05-09T07:32:03.568Z,1004.03
2018-05-09T07:33:03.905Z,1004.04
2018-05-09T07:34:03.705Z,1004.03
2018-05-09T07:35:03.719Z,1004.06
2018-05-09T07:36:03.716Z,1004.04
2018-05-09T07:37:03.740Z,1004.09
2018-05-09T07:38:03.786Z,1004.05
2018-05-09T07:39:03.807Z,1004.05
2018-05-09T07:40:04.167Z,1004.04
2018-05-09T07:41:03.874Z,1004.05
2018-05-09T07:42:03.910Z,1004.07
2018-05-09T07:43:03.983Z,1004.08
2018-05-09T07:44:03.990Z,1004.08
2018-05-09T07:45:04.005Z,1004.05
2018-05-09T07:46:04.041Z,1004.06
2018-05-09T07:47:04.380Z,1004.08
2018-05-09T07:48:04.111Z,1004.06
2018-05-09T07:49:04.235Z,1004.03
2018-05-09T07:50:04.192Z,1004.02
2018-05-09T07:51:04.270Z,1004.01
2018-05-09T07:52:04.249Z,1003.97
2018-05-09T07:53:04.324Z,1003.98
2018-05-09T07:54:04.607Z,1003.97
2018-05-09T07:55:04.347Z,1003.96
2018-05-09T07:56:04.377Z,1003.97
2018-05-09T07:57:04.489Z,1003.99
2018-05-09T07:58:04.568Z,1003.98
2018-05-09T07:59:04.533Z,1003.97
2018-05-09T08:00:04.647Z,1003.94
2018-05-09T08:01:04.852Z,1003.99
2018-05-09T08:02:04.636Z,1003.95
2018-05-09T08:03:04.620Z,1003.99
2018-05-09T08:04:04.654Z,1003.96
2018-05-09T08:05:04.689Z,1003.99
2018-05-09T08:06:04.734Z,1003.94
2018-05-09T08:07:05.076Z,1003.95
2018-05-09T08:08:04.796Z,1003.97
2018-05-09T08:09:04.821Z,1003.95
2018-05-09T08:10:04.858Z,1003.97
2018-05-09T08:11:04.889Z,1003.97
2018-05-09T08:12:04.920Z,1003.98
2018-05-09T08:13:05.307Z,1003.98
2018-05-09T08:14:05.012Z,1004.01
2018-05-09T08:15:05.028Z,1004.01
2018-05-09T08:16:05.067Z,1004.04
2018-05-09T08:17:05.159Z,1004.06
2018-05-09T08:18:05.191Z,1004.08
2018-05-09T08:19:05.520Z,1004.05
2018-05-09T08:20:05.304Z,1004.05
2018-05-09T08:21:05.251Z,1004.07
2018-05-09T08:22:05.316Z,1004.06
2018-05-09T08:23:05.359Z,1004.06
2018-05-09T08:24:05.418Z,1004.09
2018-05-09T08:25:05.710Z,1004.06
2018-05-09T08:26:05.406Z,1004.06
2018-05-09T08:27:05.504Z,1004.05
2018-05-09T08:28:05.468Z,1004.02
2018-05-09T08:29:05.516Z,1004.04
2018-05-09T08:30:05.544Z,1004.00
2018-05-09T08:31:05.872Z,1003.98
2018-05-09T08:32:05.653Z,1004.00
2018-05-09T08:33:05.692Z,1004.00
2018-05-09T08:34:05.671Z,1003.99
2018-05-09T08:35:05.704Z,1004.03
2018-05-09T08:36:05.796Z,1004.04
2018-05-09T08:37:06.131Z,1004.03
2018-05-09T08:38:05.971Z,1003.99
2018-05-09T08:39:05.843Z,1003.99
2018-05-09T08:40:05.883Z,1004.00
2018-05-09T08:41:05.917Z,1003.99
2018-05-09T08:42:06.016Z,1003.99
2018-05-09T08:43:06.034Z,1003.96
2018-05-09T08:44:06.091Z,1003.98
2018-05-09T08:45:06.049Z,1003.98
2018-05-09T08:46:06.083Z,1003.96
2018-05-09T08:47:06.176Z,1003.97
2018-05-09T08:48:06.160Z,1003.98
2018-05-09T08:49:06.547Z,1003.95
2018-05-09T08:50:06.220Z,1003.91
2018-05-09T08:51:06.257Z,1003.94
2018-05-09T08:52:06.287Z,1003.95
2018-05-09T08:53:06.325Z,1003.97
2018-05-09T08:54:06.357Z,1003.95
2018-05-09T08:55:06.746Z,1003.95
2018-05-09T08:56:06.431Z,1003.96
2018-05-09T08:57:06.461Z,1003.93
2018-05-09T08:58:06.492Z,1003.95
2018-05-09T08:59:06.537Z,1003.96
2018-05-09T09:00:06.576Z,1003.92
2018-05-09T09:01:06.897Z,1003.93
2018-05-09T09:02:06.633Z,1003.94
2018-05-09T09:03:06.718Z,1003.96
2018-05-09T09:04:06.768Z,1003.91
2018-05-09T09:05:06.733Z,1003.88
2018-05-09T09:06:06.768Z,1003.90
2018-05-09T09:07:07.156Z,1003.89
2018-05-09T09:08:06.842Z,1003.88
2018-05-09T09:09:06.880Z,1003.86
2018-05-09T09:10:06.911Z,1003.85
2018-05-09T09:11:07.054Z,1003.83
2018-05-09T09:12:06.975Z,1003.83
2018-05-09T09:13:07.358Z,1003.79
2018-05-09T09:14:07.093Z,1003.83
2018-05-09T09:15:07.083Z,1003.86
2018-05-09T09:16:07.113Z,1003.80
2018-05-09T09:17:07.152Z,1003.79
2018-05-09T09:18:07.183Z,1003.82
2018-05-09T09:19:07.590Z,1003.80
2018-05-09T09:20:07.256Z,1003.79
2018-05-09T09:21:07.290Z,1003.82
2018-05-09T09:22:07.351Z,1003.80
2018-05-09T09:23:07.356Z,1003.79
2018-05-09T09:24:07.457Z,1003.77
2018-05-09T09:25:07.789Z,1003.79
2018-05-09T09:26:07.453Z,1003.77
2018-05-09T09:27:07.488Z,1003.78
2018-05-09T09:28:07.527Z,1003.74
2018-05-09T09:29:07.726Z,1003.75
2018-05-09T09:30:07.596Z,1003.77
2018-05-09T09:31:07.627Z,1003.75
2018-05-09T09:32:08.013Z,1003.74
2018-05-09T09:33:07.696Z,1003.70
2018-05-09T09:34:07.730Z,1003.70
2018-05-09T09:35:07.764Z,1003.66
2018-05-09T09:36:07.801Z,1003.65
2018-05-09T09:37:07.839Z,1003.67
2018-05-09T09:38:07.876Z,1003.68
2018-05-09T09:39:08.204Z,1003.66
2018-05-09T09:40:08.288Z,1003.66
2018-05-09T09:41:07.969Z,1003.67
2018-05-09T09:42:08.003Z,1003.63
2018-05-09T09:43:08.038Z,1003.59
2018-05-09T09:44:08.076Z,1003.57
2018-05-09T09:45:08.109Z,1003.55
2018-05-09T09:46:08.444Z,1003.55
2018-05-09T09:47:08.236Z,1003.53
2018-05-09T09:48:08.230Z,1003.48
2018-05-09T09:49:08.248Z,1003.50
2018-05-09T09:50:08.300Z,1003.45
2018-05-09T09:51:08.390Z,1003.48
2018-05-09T09:52:08.430Z,1003.45
2018-05-09T09:53:08.749Z,1003.45
2018-05-09T09:54:08.414Z,1003.45
2018-05-09T09:55:08.464Z,1003.41
2018-05-09T09:56:08.497Z,1003.38
2018-05-09T09:57:08.521Z,1003.37
2018-05-09T09:58:08.555Z,1003.35
2018-05-09T09:59:08.637Z,1003.36
2018-05-09T10:00:08.927Z,1003.31
2018-05-09T10:01:08.664Z,1003.33
2018-05-09T10:02:08.703Z,1003.31
2018-05-09T10:03:08.859Z,1003.30
2018-05-09T10:04:08.775Z,1003.32
2018-05-09T10:05:08.858Z,1003.29
2018-05-09T10:06:08.843Z,1003.28
2018-05-09T10:07:09.178Z,1003.25
2018-05-09T10:08:08.905Z,1003.25
2018-05-09T10:09:08.933Z,1003.24
2018-05-09T10:10:08.970Z,1003.20
2018-05-09T10:11:09.005Z,1003.23
2018-05-09T10:12:09.039Z,1003.21
2018-05-09T10:13:09.084Z,1003.22
2018-05-09T10:14:09.415Z,1003.20
2018-05-09T10:15:09.151Z,1003.21
2018-05-09T10:16:09.269Z,1003.19
2018-05-09T10:17:09.216Z,1003.15
2018-05-09T10:18:09.322Z,1003.13
2018-05-09T10:19:09.279Z,1003.13
2018-05-09T10:20:09.319Z,1003.12
2018-05-09T10:21:09.651Z,1003.11
2018-05-09T10:22:09.387Z,1003.09
2018-05-09T10:23:09.490Z,1003.08
2018-05-09T10:24:09.456Z,1003.02
2018-05-09T10:25:09.491Z,1003.01
2018-05-09T10:26:09.520Z,1003.02
2018-05-09T10:27:09.560Z,1002.96
2018-05-09T10:28:09.940Z,1002.97
2018-05-09T10:29:09.627Z,1002.93
2018-05-09T10:30:09.662Z,1002.97
2018-05-09T10:31:09.697Z,1002.92
2018-05-09T10:32:09.779Z,1002.91
2018-05-09T10:33:09.786Z,1002.91
2018-05-09T10:34:09.804Z,1002.96
2018-05-09T10:35:10.161Z,1002.88
2018-05-09T10:36:09.869Z,1002.90
2018-05-09T10:37:09.899Z,1002.89
2018-05-09T10:38:09.992Z,1002.91
2018-05-09T10:39:09.973Z,1002.91
2018-05-09T10:40:10.006Z,1002.90
2018-05-09T10:41:10.095Z,1002.86
2018-05-09T10:42:10.384Z,1002.82
2018-05-09T10:43:10.117Z,1002.81
2018-05-09T10:44:10.149Z,1002.82
2018-05-09T10:45:10.226Z,1002.85
2018-05-09T10:46:10.217Z,1002.83
2018-05-09T10:47:10.254Z,1002.81
2018-05-09T10:48:10.308Z,1002.79
2018-05-09T10:49:10.620Z,1002.77
2018-05-09T10:50:10.756Z,1002.75
2018-05-09T10:51:10.451Z,1002.73
2018-05-09T10:52:10.467Z,1002.74
2018-05-09T10:53:10.548Z,1002.74
2018-05-09T10:54:10.550Z,1002.75
2018-05-09T10:55:10.873Z,1002.73
2018-05-09T10:56:10.558Z,1002.71
2018-05-09T10:57:10.689Z,1002.66
2018-05-09T10:58:10.628Z,1002.71
2018-05-09T10:59:10.664Z,1002.71
2018-05-09T11:00:10.711Z,1002.67
2018-05-09T11:01:11.028Z,1002.70
2018-05-09T11:02:10.782Z,1002.72
2018-05-09T11:03:10.807Z,1002.73
2018-05-09T11:04:10.840Z,1002.69
2018-05-09T11:05:10.998Z,1002.71
2018-05-09T11:06:10.907Z,1002.72
2018-05-09T11:07:11.294Z,1002.70
2018-05-09T11:08:11.025Z,1002.68
2018-05-09T11:09:11.004Z,1002.72
2018-05-09T11:10:11.050Z,1002.67
2018-05-09T11:11:11.081Z,1002.69
2018-05-09T11:12:11.116Z,1002.68
2018-05-09T11:13:11.498Z,1002.65
2018-05-09T11:14:11.181Z,1002.62
2018-05-09T11:15:11.283Z,1002.61
2018-05-09T11:16:11.253Z,1002.61
2018-05-09T11:17:11.286Z,1002.61
2018-05-09T11:18:11.332Z,1002.52
2018-05-09T11:19:11.659Z,1002.57
2018-05-09T11:20:11.387Z,1002.54
2018-05-09T11:21:11.421Z,1002.53
2018-05-09T11:22:11.504Z,1002.51
2018-05-09T11:23:11.491Z,1002.53
2018-05-09T11:24:11.526Z,1002.51
2018-05-09T11:25:11.863Z,1002.46
2018-05-09T11:26:11.641Z,1002.48
2018-05-09T11:27:11.678Z,1002.46
2018-05-09T11:28:11.678Z,1002.44
2018-05-09T11:29:11.716Z,1002.42
2018-05-09T11:30:11.818Z,1002.46
2018-05-09T11:31:12.123Z,1002.46
2018-05-09T11:32:11.907Z,1002.41
2018-05-09T11:33:11.903Z,1002.37
2018-05-09T11:34:11.930Z,1002.38
2018-05-09T11:35:11.912Z,1002.42
2018-05-09T11:36:11.941Z,1002.37
2018-05-09T11:37:12.329Z,1002.37
2018-05-09T11:38:12.029Z,1002.40
2018-05-09T11:39:12.218Z,1002.39
2018-05-09T11:40:12.093Z,1002.37
2018-05-09T11:41:12.162Z,1002.39
2018-05-09T11:42:12.158Z,1002.35
2018-05-09T11:43:12.585Z,1002.32
2018-05-09T11:44:12.235Z,1002.35
2018-05-09T11:45:12.314Z,1002.33
2018-05-09T11:46:12.293Z,1002.35
2018-05-09T11:47:12.342Z,1002.36
2018-05-09T11:48:12.369Z,1002.29
2018-05-09T11:49:12.700Z,1002.30
2018-05-09T11:50:12.430Z,1002.27
2018-05-09T11:51:12.467Z,1002.25
2018-05-09T11:52:12.501Z,1002.25
2018-05-09T11:53:12.589Z,1002.25
2018-05-09T11:54:12.572Z,1002.25
2018-05-09T11:55:12.620Z,1002.24
2018-05-09T11:56:12.653Z,1002.25
2018-05-09T11:57:12.752Z,1002.18
2018-05-09T11:58:12.727Z,1002.23
2018-05-09T11:59:12.752Z,1002.21
2018-05-09T12:00:12.784Z,1002.22
2018-05-09T12:01:13.180Z,1002.23
2018-05-09T12:02:12.881Z,1002.22
2018-05-09T12:03:12.888Z,1002.27
2018-05-09T12:04:12.919Z,1002.20
2018-05-09T12:05:12.962Z,1002.24
2018-05-09T12:06:13.026Z,1002.21
2018-05-09T12:07:13.342Z,1002.17
2018-05-09T12:08:13.111Z,1002.19
2018-05-09T12:09:13.093Z,1002.18